KIWD/IWD METAR and TAF weather

Enter ICAO airport designator
Station Type Date Time Source
KIWD METAR 2022/06/30 02:04 UTC NOAA

KIWD 300204Z AUTO 16009G16KT 10SM -RA FEW022 SCT080 SCT110 19/14 A2995 RMK AO2 LTG DSNT E TSE0158 P0000


Station Type Date Time Source
KIWD Decoded METAR 2022/06/30 02:04 UTC NOAA

Ironwood, Gogebic-Iron County Airport, MI, United States (KIWD) 46-32N 090-08W
Jun 29, 2022 - 10:04 PM EDT / 2022.06.30 0204 UTC
Wind: from the SSE (160 degrees) at 10 MPH (9 KT) gusting to 18 MPH (16 KT):0
Visibility: 10 mile(s):0
Sky conditions: partly cloudy
Weather: light rain; Lightning observed
Precipitation last hour: A trace
Temperature: 66 F (19 C)
Dew Point: 57 F (14 C)
Relative Humidity: 72%
Pressure (altimeter): 29.95 in. Hg (1014 hPa)
ob: KIWD 300204Z AUTO 16009G16KT 10SM -RA FEW022 SCT080 SCT110 19/14 A2995 RMK AO2 LTG DSNT E TSE0158 P0000
cycle: 2

Station Type Date Time Source
KIWD TAF 2022/06/29 18:42 UTC NOAA

TAF KIWD 291739Z 2918/3018 20006KT P6SM FEW060 BKN160
FM300100 16011G22KT P6SM BKN120
FM300600 18016G24KT P6SM VCSH SCT090 WS020/21060KT
FM301300 21017G28KT P6SM BKN090

Example: see airport list